Salacak — 3FBM4 — position and weather

sailwx.info

Track history (hours):
 
Tides and Currents Weather Stations Pressure Air Temp Water Temp Dewpoint Dewpoint Depression Visibility Wind Speed Wind Dir Waves Ship Positions

Salacak

Last reported at 2015-Apr-23 05:29 UTC. Time now 2015-Apr-28 19:49 UTC.
Position N 40°53' E 028°36'.

Length 126 m; draft 5.2 m.

Type: Cargo ship. MMSI: 373532000.

Date/timePositionNaut miles runAvg speedWind from/ knotsBaromVisibWave heightAir tempDewpointWater temp
2015-Apr-23 05:29N 40°53' E 028°36'1111.6
2015-Apr-23 04:32N 40°55' E 028°50'5 3.7
2015-Apr-23 03:06N 40°59' E 028°56'0 0.1
2015-Apr-23 02:17N 40°59' E 028°56'0 0.0
2015-Apr-23 01:17N 40°59' E 028°56'1 1.3
2015-Apr-23 00:33N 40°59' E 028°57'1110.4
2015-Apr-22 23:30N 41°08' E 029°04'13 2.5
2015-Apr-22 18:20N 41°21' E 029°08'1 1.0
2015-Apr-22 17:28N 41°22' E 029°08'8 9.2
2015-Apr-22 16:33N 41°21' E 029°19'1212.0
2015-Apr-22 15:33N 41°18' E 029°34'2 2.3
2015-Apr-22 14:33N 41°17' E 029°37'11 0.3
2015-Apr-21 06:34N 41°27' E 029°31'36 9.0
2015-Apr-21 02:33N 40°60' E 028°60'7 7.3
2015-Apr-21 01:33N 40°52' E 029°01'8 4.0
2015-Apr-20 23:33N 40°52' E 029°12'0 0.0
2015-Apr-20 22:21N 40°52' E 029°12'0 0.1
2015-Apr-20 21:33N 40°52' E 029°12'0 0.0
2015-Apr-20 20:33N 40°52' E 029°12'0 0.0
2015-Apr-20 19:33N 40°52' E 029°12'0 0.0
2015-Apr-20 18:32N 40°52' E 029°12'0 0.0
2015-Apr-20 17:20N 40°52' E 029°12'0 0.0
2015-Apr-20 16:32N 40°52' E 029°12'0 0.0
2015-Apr-20 15:32N 40°52' E 029°12'0 0.0
2015-Apr-20 14:20N 40°52' E 029°12'0 0.0
2015-Apr-20 13:33N 40°52' E 029°12'0 0.0
2015-Apr-20 12:26N 40°52' E 029°12'0 0.0
2015-Apr-20 11:32N 40°52' E 029°12'0 0.0
2015-Apr-20 10:32N 40°52' E 029°12'0 0.0
2015-Apr-20 09:26N 40°52' E 029°12'0 0.0
2015-Apr-20 08:29N 40°52' E 029°12'0 0.1
2015-Apr-20 07:29N 40°52' E 029°12'0 0.0
2015-Apr-20 06:23N 40°52' E 029°12'0 0.0
2015-Apr-20 05:29N 40°52' E 029°12'0 0.0
2015-Apr-20 04:29N 40°52' E 029°12'0 0.0
2015-Apr-20 03:29N 40°52' E 029°12'0 0.0
2015-Apr-20 02:23N 40°52' E 029°12'0 0.0
2015-Apr-20 01:29N 40°52' E 029°12'0 0.0
2015-Apr-20 00:29N 40°52' E 029°12'0 0.0
2015-Apr-19 23:11N 40°52' E 029°12'0 0.1
2015-Apr-19 22:23N 40°52' E 029°12'0 0.0
2015-Apr-19 21:29N 40°52' E 029°12'0 0.0
2015-Apr-19 20:29N 40°52' E 029°12'0 0.0
2015-Apr-19 19:29N 40°52' E 029°12'0 0.0
2015-Apr-19 18:29N 40°52' E 029°12'0 0.0
2015-Apr-19 17:29N 40°52' E 029°12'0 0.0
2015-Apr-19 16:29N 40°52' E 029°12'0 0.0
2015-Apr-19 15:23N 40°52' E 029°12'0 0.0
2015-Apr-19 14:29N 40°52' E 029°12'0 0.0
2015-Apr-19 13:29N 40°52' E 029°12'0 0.0
2015-Apr-19 12:29N 40°52' E 029°12'0 0.0
2015-Apr-19 11:17N 40°52' E 029°12'0 0.0
2015-Apr-19 10:22N 40°52' E 029°12'0 0.0
2015-Apr-19 09:22N 40°52' E 029°12'0 0.0
2015-Apr-19 08:22N 40°52' E 029°12'0 0.0
2015-Apr-19 07:28N 40°52' E 029°12'0 0.0
2015-Apr-19 06:28N 40°52' E 029°12'0 0.0
2015-Apr-19 05:28N 40°52' E 029°12'0 0.1
2015-Apr-19 04:28N 40°52' E 029°12'0 0.0
2015-Apr-19 03:22N 40°52' E 029°12'0 0.0
2015-Apr-19 02:28N 40°52' E 029°12'0 0.0
2015-Apr-19 01:16N 40°52' E 029°12'0 0.0
2015-Apr-19 00:28N 40°52' E 029°12'0 0.0
2015-Apr-18 23:22N 40°52' E 029°12'0 0.0
2015-Apr-18 22:28N 40°52' E 029°12'0 0.1
2015-Apr-18 21:28N 40°52' E 029°12'0 0.0
2015-Apr-18 20:28N 40°52' E 029°12'0 0.0
2015-Apr-18 19:28N 40°52' E 029°12'0 0.0
2015-Apr-18 18:28N 40°52' E 029°12'0 0.0
2015-Apr-18 17:28N 40°52' E 029°12'0 0.0
2015-Apr-18 16:28N 40°52' E 029°12'2 1.8
2015-Apr-18 15:33N 40°50' E 029°13'9 9.1
2015-Apr-18 14:33N 40°44' E 029°22'11 0.3
2015-Apr-17 05:08N 40°47' E 029°36'0 0.0
2015-Apr-17 04:08N 40°47' E 029°36'0 0.0
2015-Apr-16 23:20N 40°47' E 029°36'1 0.1
2015-Apr-16 15:04N 40°46' E 029°35'6 9.4
2015-Apr-16 14:27N 40°45' E 029°28'37 2.1
2015-Apr-15 20:33N 41°17' E 029°02'0 0.0
2015-Apr-15 19:33N 41°17' E 029°02'0 0.0
2015-Apr-15 18:33N 41°17' E 029°02'0 0.0
2015-Apr-15 17:24N 41°17' E 029°02'0 0.0
2015-Apr-15 16:18N 41°17' E 029°02'0 0.0
2015-Apr-15 15:33N 41°17' E 029°02'0 0.0
2015-Apr-15 14:33N 41°17' E 029°02'0 0.0
2015-Apr-15 13:33N 41°17' E 029°02'285 7.5
2015-Apr-13 23:30N 43°05' E 034°58'1111.7
2015-Apr-13 22:33N 43°12' E 035°09'1211.6
2015-Apr-13 21:33N 43°20' E 035°21'1211.6
2015-Apr-13 20:33N 43°27' E 035°33'1211.8
2015-Apr-13 19:33N 43°35' E 035°45'1212.1
2015-Apr-13 18:33N 43°42' E 035°59'1212.3
2015-Apr-13 17:33N 43°49' E 036°13'1212.2
2015-Apr-13 16:33N 43°56' E 036°27'1212.0
2015-Apr-13 15:33N 44°03' E 036°41'1212.1
2015-Apr-13 14:33N 44°10' E 036°55'1212.0
2015-Apr-13 13:33N 44°16' E 037°08'1212.1
2015-Apr-13 12:33N 44°23' E 037°22'1212.2
2015-Apr-13 11:33N 44°30' E 037°36'1211.9
2015-Apr-13 10:33N 44°38' E 037°49'6 5.6
2015-Apr-13 09:32N 44°44' E 037°48'0 0.0
2015-Apr-13 08:32N 44°44' E 037°48'0 0.0
2015-Apr-13 07:32N 44°44' E 037°48'0 0.0
2015-Apr-13 06:31N 44°44' E 037°48'0 0.0
2015-Apr-13 05:31N 44°44' E 037°48'  
Track history (hours):
 
Tides and Currents Weather Stations Pressure Air Temp Water Temp Dewpoint Dewpoint Depression Visibility Wind Speed Wind Dir Waves Ship Positions

Salacak

Last reported at 2015-Apr-23 05:29 UTC. Time now 2015-Apr-28 19:49 UTC.
Position N 40°53' E 028°36'.

Length 126 m; draft 5.2 m.

Type: Cargo ship. MMSI: 373532000.

Date/timePositionNaut miles runAvg speedWind from/ knotsBaromVisibWave heightAir tempDewpointWater temp
2015-Apr-23 05:29N 40°53' E 028°36'1111.6
2015-Apr-23 04:32N 40°55' E 028°50'5 3.7
2015-Apr-23 03:06N 40°59' E 028°56'0 0.1
2015-Apr-23 02:17N 40°59' E 028°56'0 0.0
2015-Apr-23 01:17N 40°59' E 028°56'1 1.3
2015-Apr-23 00:33N 40°59' E 028°57'1110.4
2015-Apr-22 23:30N 41°08' E 029°04'13 2.5
2015-Apr-22 18:20N 41°21' E 029°08'1 1.0
2015-Apr-22 17:28N 41°22' E 029°08'8 9.2
2015-Apr-22 16:33N 41°21' E 029°19'1212.0
2015-Apr-22 15:33N 41°18' E 029°34'2 2.3
2015-Apr-22 14:33N 41°17' E 029°37'11 0.3
2015-Apr-21 06:34N 41°27' E 029°31'36 9.0
2015-Apr-21 02:33N 40°60' E 028°60'7 7.3
2015-Apr-21 01:33N 40°52' E 029°01'8 4.0
2015-Apr-20 23:33N 40°52' E 029°12'0 0.0
2015-Apr-20 22:21N 40°52' E 029°12'0 0.1
2015-Apr-20 21:33N 40°52' E 029°12'0 0.0
2015-Apr-20 20:33N 40°52' E 029°12'0 0.0
2015-Apr-20 19:33N 40°52' E 029°12'0 0.0
2015-Apr-20 18:32N 40°52' E 029°12'0 0.0
2015-Apr-20 17:20N 40°52' E 029°12'0 0.0
2015-Apr-20 16:32N 40°52' E 029°12'0 0.0
2015-Apr-20 15:32N 40°52' E 029°12'0 0.0
2015-Apr-20 14:20N 40°52' E 029°12'0 0.0
2015-Apr-20 13:33N 40°52' E 029°12'0 0.0
2015-Apr-20 12:26N 40°52' E 029°12'0 0.0
2015-Apr-20 11:32N 40°52' E 029°12'0 0.0
2015-Apr-20 10:32N 40°52' E 029°12'0 0.0
2015-Apr-20 09:26N 40°52' E 029°12'0 0.0
2015-Apr-20 08:29N 40°52' E 029°12'0 0.1
2015-Apr-20 07:29N 40°52' E 029°12'0 0.0
2015-Apr-20 06:23N 40°52' E 029°12'0 0.0
2015-Apr-20 05:29N 40°52' E 029°12'0 0.0
2015-Apr-20 04:29N 40°52' E 029°12'0 0.0
2015-Apr-20 03:29N 40°52' E 029°12'0 0.0
2015-Apr-20 02:23N 40°52' E 029°12'0 0.0
2015-Apr-20 01:29N 40°52' E 029°12'0 0.0
2015-Apr-20 00:29N 40°52' E 029°12'0 0.0
2015-Apr-19 23:11N 40°52' E 029°12'0 0.1
2015-Apr-19 22:23N 40°52' E 029°12'0 0.0
2015-Apr-19 21:29N 40°52' E 029°12'0 0.0
2015-Apr-19 20:29N 40°52' E 029°12'0 0.0
2015-Apr-19 19:29N 40°52' E 029°12'0 0.0
2015-Apr-19 18:29N 40°52' E 029°12'0 0.0
2015-Apr-19 17:29N 40°52' E 029°12'0 0.0
2015-Apr-19 16:29N 40°52' E 029°12'0 0.0
2015-Apr-19 15:23N 40°52' E 029°12'0 0.0
2015-Apr-19 14:29N 40°52' E 029°12'0 0.0
2015-Apr-19 13:29N 40°52' E 029°12'0 0.0
2015-Apr-19 12:29N 40°52' E 029°12'0 0.0
2015-Apr-19 11:17N 40°52' E 029°12'0 0.0
2015-Apr-19 10:22N 40°52' E 029°12'0 0.0
2015-Apr-19 09:22N 40°52' E 029°12'0 0.0
2015-Apr-19 08:22N 40°52' E 029°12'0 0.0
2015-Apr-19 07:28N 40°52' E 029°12'0 0.0
2015-Apr-19 06:28N 40°52' E 029°12'0 0.0
2015-Apr-19 05:28N 40°52' E 029°12'0 0.1
2015-Apr-19 04:28N 40°52' E 029°12'0 0.0
2015-Apr-19 03:22N 40°52' E 029°12'0 0.0
2015-Apr-19 02:28N 40°52' E 029°12'0 0.0
2015-Apr-19 01:16N 40°52' E 029°12'0 0.0
2015-Apr-19 00:28N 40°52' E 029°12'0 0.0
2015-Apr-18 23:22N 40°52' E 029°12'0 0.0
2015-Apr-18 22:28N 40°52' E 029°12'0 0.1
2015-Apr-18 21:28N 40°52' E 029°12'0 0.0
2015-Apr-18 20:28N 40°52' E 029°12'0 0.0
2015-Apr-18 19:28N 40°52' E 029°12'0 0.0
2015-Apr-18 18:28N 40°52' E 029°12'0 0.0
2015-Apr-18 17:28N 40°52' E 029°12'0 0.0
2015-Apr-18 16:28N 40°52' E 029°12'2 1.8
2015-Apr-18 15:33N 40°50' E 029°13'9 9.1
2015-Apr-18 14:33N 40°44' E 029°22'11 0.3
2015-Apr-17 05:08N 40°47' E 029°36'0 0.0
2015-Apr-17 04:08N 40°47' E 029°36'0 0.0
2015-Apr-16 23:20N 40°47' E 029°36'1 0.1
2015-Apr-16 15:04N 40°46' E 029°35'6 9.4
2015-Apr-16 14:27N 40°45' E 029°28'37 2.1
2015-Apr-15 20:33N 41°17' E 029°02'0 0.0
2015-Apr-15 19:33N 41°17' E 029°02'0 0.0
2015-Apr-15 18:33N 41°17' E 029°02'0 0.0
2015-Apr-15 17:24N 41°17' E 029°02'0 0.0
2015-Apr-15 16:18N 41°17' E 029°02'0 0.0
2015-Apr-15 15:33N 41°17' E 029°02'0 0.0
2015-Apr-15 14:33N 41°17' E 029°02'0 0.0
2015-Apr-15 13:33N 41°17' E 029°02'285 7.5
2015-Apr-13 23:30N 43°05' E 034°58'1111.7
2015-Apr-13 22:33N 43°12' E 035°09'1211.6
2015-Apr-13 21:33N 43°20' E 035°21'1211.6
2015-Apr-13 20:33N 43°27' E 035°33'1211.8
2015-Apr-13 19:33N 43°35' E 035°45'1212.1
2015-Apr-13 18:33N 43°42' E 035°59'1212.3
2015-Apr-13 17:33N 43°49' E 036°13'1212.2
2015-Apr-13 16:33N 43°56' E 036°27'1212.0
2015-Apr-13 15:33N 44°03' E 036°41'1212.1
2015-Apr-13 14:33N 44°10' E 036°55'1212.0
2015-Apr-13 13:33N 44°16' E 037°08'1212.1
2015-Apr-13 12:33N 44°23' E 037°22'1212.2
2015-Apr-13 11:33N 44°30' E 037°36'1211.9
2015-Apr-13 10:33N 44°38' E 037°49'6 5.6
2015-Apr-13 09:32N 44°44' E 037°48'0 0.0
2015-Apr-13 08:32N 44°44' E 037°48'0 0.0
2015-Apr-13 07:32N 44°44' E 037°48'0 0.0
2015-Apr-13 06:31N 44°44' E 037°48'0 0.0
2015-Apr-13 05:31N 44°44' E 037°48'  

Dump ship's entire track history